Time;durP1;ratioP1;P1;durP2;ratioP2;P2;SDS_P1;SDS_P2;PMS_P1;PMS_P2;Temp;Humidity;BMP_temperature;BMP_pressure;BME280_temperature;BME280_humidity;BME280_pressure;Samples;Min_cycle;Max_cycle;Signal;HPM_P1;HPM_P2
2022/07/26 00:01:45;;;;;;;3.67;1.90;;;;;;;21.56;46.07;99403.91;5014075;28;20455;-71
2022/07/26 00:04:12;;;;;;;3.95;2.50;;;;;;;21.62;46.38;99397.84;5013212;28;20048;-70
2022/07/26 00:06:38;;;;;;;3.90;2.20;;;;;;;21.66;46.47;99409.84;5012780;28;20479;-71
2022/07/26 00:09:03;;;;;;;2.53;2.10;;;;;;;21.67;46.44;99415.06;5014390;28;20442;-71
2022/07/26 00:11:32;;;;;;;3.40;2.47;;;;;;;21.70;46.91;99413.09;5012375;28;20060;-71
2022/07/26 00:14:07;;;;;;;7.10;3.08;;;;;;;21.72;47.19;99413.28;5012761;28;20057;-72
2022/07/26 00:16:41;;;;;;;6.40;2.70;;;;;;;21.77;47.16;99408.59;4996386;28;20475;-71
2022/07/26 00:19:06;;;;;;;3.72;2.40;;;;;;;21.42;47.55;99401.84;5013527;28;20479;-71
2022/07/26 00:21:35;;;;;;;7.13;2.33;;;;;;;21.83;47.36;99392.41;5013799;28;20076;-71
2022/07/26 00:24:03;;;;;;;4.65;2.55;;;;;;;21.88;47.64;99381.94;4997145;28;20049;-71
2022/07/26 00:26:29;;;;;;;2.63;2.10;;;;;;;21.93;47.19;99383.81;5013712;28;20105;-70
2022/07/26 00:28:55;;;;;;;3.80;2.50;;;;;;;21.96;47.48;99386.31;5012805;28;20113;-71
2022/07/26 00:31:22;;;;;;;3.03;2.15;;;;;;;22.00;46.76;99374.25;5012863;28;20034;-71
2022/07/26 00:33:47;;;;;;;4.95;2.15;;;;;;;22.02;46.87;99368.63;5014015;28;20053;-72
2022/07/26 00:36:13;;;;;;;3.90;2.30;;;;;;;22.08;47.18;99363.28;4996067;28;20468;-71
2022/07/26 00:38:40;;;;;;;3.15;2.42;;;;;;;22.12;46.79;99360.75;5012586;28;20120;-72
2022/07/26 00:41:08;;;;;;;3.78;2.58;;;;;;;22.13;47.19;99361.50;5013393;28;20164;-71
2022/07/26 00:43:35;;;;;;;2.85;2.40;;;;;;;22.18;47.06;99354.69;4996667;28;20429;-71
2022/07/26 00:46:01;;;;;;;3.55;2.75;;;;;;;22.16;47.11;99354.50;5013925;28;20037;-71
2022/07/26 00:48:26;;;;;;;5.03;2.65;;;;;;;22.17;46.71;99359.00;4996075;28;20038;-70
2022/07/26 00:50:54;;;;;;;5.55;2.40;;;;;;;22.16;46.85;99352.38;5012290;28;20038;-70
2022/07/26 00:53:21;;;;;;;4.82;2.47;;;;;;;22.17;47.08;99356.84;5012255;28;20131;-71
2022/07/26 00:55:51;;;;;;;2.22;2.03;;;;;;;22.20;46.69;99370.19;5013425;28;20475;-72
2022/07/26 00:58:17;;;;;;;3.13;2.78;;;;;;;22.16;46.88;99366.91;5012344;28;20042;-72
2022/07/26 01:00:44;;;;;;;2.78;2.55;;;;;;;22.17;47.08;99374.31;5015215;28;20026;-71
2022/07/26 01:03:10;;;;;;;4.80;2.25;;;;;;;22.17;46.50;99368.50;5017610;28;20044;-72
2022/07/26 01:05:35;;;;;;;10.43;3.40;;;;;;;22.14;46.69;99378.38;5017385;28;20029;-73
2022/07/26 01:08:00;;;;;;;4.75;2.38;;;;;;;22.09;46.86;99377.25;5016400;28;20060;-70
2022/07/26 01:10:27;;;;;;;3.33;2.28;;;;;;;22.06;46.74;99375.56;5014804;28;20057;-70
2022/07/26 01:12:54;;;;;;;5.13;2.53;;;;;;;22.04;47.24;99369.53;5014729;28;20040;-71
2022/07/26 01:15:22;;;;;;;3.13;2.17;;;;;;;22.01;47.35;99376.56;5015895;28;20033;-71
2022/07/26 01:17:47;;;;;;;2.28;1.98;;;;;;;21.97;47.67;99373.31;5015562;28;20475;-71
2022/07/26 01:20:14;;;;;;;3.05;2.10;;;;;;;21.94;47.83;99370.81;5015728;28;20097;-70
2022/07/26 01:22:40;;;;;;;6.95;2.88;;;;;;;21.89;48.00;99363.09;5015469;28;20030;-71
2022/07/26 01:25:06;;;;;;;8.15;2.78;;;;;;;21.84;48.05;99364.09;5016896;28;20135;-71
2022/07/26 01:27:37;;;;;;;4.18;2.90;;;;;;;21.86;48.30;99367.97;5014738;28;20064;-72
2022/07/26 01:30:12;;;;;;;2.72;2.35;;;;;;;21.86;48.68;99376.72;5015516;28;20459;-70
2022/07/26 01:32:39;;;;;;;3.00;2.47;;;;;;;21.93;47.84;99377.97;5015511;28;20037;-71
2022/07/26 01:35:06;;;;;;;3.63;3.10;;;;;;;21.96;47.72;99386.31;5014117;28;20104;-70
2022/07/26 01:37:31;;;;;;;6.13;2.33;;;;;;;21.98;48.19;99388.59;5015332;28;20458;-73
2022/07/26 01:39:56;;;;;;;2.75;2.50;;;;;;;22.00;48.20;99403.34;5014311;28;20033;-71
2022/07/26 01:42:32;;;;;;;2.95;2.47;;;;;;;22.03;48.52;99396.31;5015386;28;20048;-70
2022/07/26 01:44:58;;;;;;;10.43;3.58;;;;;;;22.06;48.34;99380.59;5016559;28;20029;-71
2022/07/26 01:47:24;;;;;;;4.10;2.20;;;;;;;22.05;47.84;99387.78;5016440;28;20040;-73
2022/07/26 01:49:50;;;;;;;3.38;2.65;;;;;;;22.07;48.17;99394.56;5015241;28;20116;-70
2022/07/26 01:52:15;;;;;;;6.13;2.60;;;;;;;22.08;48.10;99383.66;5016709;28;20100;-71
2022/07/26 01:54:42;;;;;;;4.28;2.78;;;;;;;22.16;47.89;99392.34;5016677;28;20521;-71
2022/07/26 01:57:08;;;;;;;5.50;2.80;;;;;;;22.20;47.24;99395.63;5016186;28;20042;-71
2022/07/26 01:59:34;;;;;;;6.50;2.70;;;;;;;22.23;48.07;99389.38;5016641;28;20028;-71
2022/07/26 02:02:00;;;;;;;9.02;2.63;;;;;;;22.27;47.76;99394.78;5016295;28;20141;-71
2022/07/26 02:07:10;;;;;;;4.40;3.15;;;;;;;22.29;47.49;99389.13;5016471;28;20391;-71
2022/07/26 02:09:35;;;;;;;3.38;2.65;;;;;;;22.29;48.56;99404.44;4998547;28;20021;-71
2022/07/26 02:12:16;;;;;;;5.07;2.67;;;;;;;22.32;47.92;99394.50;5015342;28;20059;-71
2022/07/26 02:14:42;;;;;;;5.65;2.22;;;;;;;22.33;47.98;99407.72;5011391;28;20132;-72
2022/07/26 02:17:08;;;;;;;4.13;2.88;;;;;;;22.34;48.32;99402.66;5015976;28;20048;-70
2022/07/26 02:19:35;;;;;;;6.68;2.63;;;;;;;22.31;49.60;99422.09;5015252;28;20053;-70
2022/07/26 02:22:00;;;;;;;5.75;2.28;;;;;;;22.32;50.94;99441.09;5015901;28;20040;-71
2022/07/26 02:24:30;;;;;;;6.57;2.50;;;;;;;22.36;51.94;99443.59;5015925;28;20030;-70
2022/07/26 02:27:04;;;;;;;3.55;2.75;;;;;;;22.37;53.35;99421.88;5014906;28;20029;-72
2022/07/26 02:29:30;;;;;;;8.27;3.10;;;;;;;22.24;53.10;99422.94;5014455;28;20107;-72
2022/07/26 02:32:15;;;;;;;6.90;3.42;;;;;;;22.17;54.79;99455.03;5014737;28;20435;-71
2022/07/26 02:34:55;;;;;;;5.57;3.60;;;;;;;21.96;56.09;99432.88;5015757;28;20419;-71
2022/07/26 02:37:21;;;;;;;5.28;3.85;;;;;;;21.75;57.17;99481.91;5015664;28;20056;-71
2022/07/26 02:39:47;;;;;;;6.85;3.70;;;;;;;21.71;56.80;99490.25;5014382;28;20036;-71
2022/07/26 02:42:14;;;;;;;6.57;4.25;;;;;;;21.63;59.24;99487.38;5015679;28;20030;-71
2022/07/26 02:44:40;;;;;;;9.02;5.00;;;;;;;21.47;59.96;99491.75;5014538;28;20064;-70
2022/07/26 02:47:07;;;;;;;12.73;4.70;;;;;;;21.30;62.25;99494.53;5015347;28;20048;-71
2022/07/26 02:49:32;;;;;;;9.90;5.70;;;;;;;21.21;64.22;99519.16;5015725;28;20117;-70
2022/07/26 02:51:59;;;;;;;8.38;4.95;;;;;;;20.92;65.59;99522.94;5015312;28;20100;-70
2022/07/26 02:54:25;;;;;;;10.80;5.30;;;;;;;20.68;66.58;99513.50;5015504;28;20033;-70
2022/07/26 02:56:51;;;;;;;8.02;6.20;;;;;;;20.52;67.63;99531.50;5015478;28;20030;-71
2022/07/26 02:59:17;;;;;;;8.30;5.95;;;;;;;20.45;67.53;99535.94;5015563;28;20113;-71
2022/07/26 03:01:42;;;;;;;10.60;6.03;;;;;;;20.39;68.03;99539.06;5015353;28;20108;-72
2022/07/26 03:04:08;;;;;;;10.23;6.10;;;;;;;20.37;69.17;99540.97;5015060;28;20029;-72
2022/07/26 03:06:35;;;;;;;12.13;5.30;;;;;;;20.38;68.23;99539.63;5015226;28;20026;-70
2022/07/26 03:09:00;;;;;;;9.55;6.40;;;;;;;20.35;68.26;99556.06;5014899;28;20033;-70
2022/07/26 03:11:27;;;;;;;9.27;5.63;;;;;;;20.33;68.83;99555.88;5013589;28;20022;-70
2022/07/26 03:13:53;;;;;;;8.18;5.63;;;;;;;20.34;69.33;99571.97;5013647;28;20037;-71
2022/07/26 03:16:19;;;;;;;8.75;6.68;;;;;;;20.33;69.84;99567.50;5014657;28;20030;-71
2022/07/26 03:18:46;;;;;;;10.98;7.20;;;;;;;20.28;69.53;99556.84;5014592;28;20050;-72
2022/07/26 03:21:12;;;;;;;10.20;6.30;;;;;;;20.32;69.26;99570.97;5014977;28;20030;-71
2022/07/26 03:23:38;;;;;;;8.52;6.82;;;;;;;20.30;69.98;99565.75;5013664;28;20084;-71
2022/07/26 03:26:04;;;;;;;13.70;6.50;;;;;;;20.28;70.28;99567.69;5014762;28;20040;-72
2022/07/26 03:28:31;;;;;;;10.55;6.80;;;;;;;20.21;70.58;99560.50;5013194;28;20030;-71
2022/07/26 03:30:57;;;;;;;11.60;7.60;;;;;;;20.17;71.41;99563.03;5013372;28;20025;-71
2022/07/26 03:33:24;;;;;;;10.02;8.18;;;;;;;20.17;72.16;99560.13;5014632;28;20037;-70
2022/07/26 03:35:50;;;;;;;12.98;8.70;;;;;;;20.10;72.38;99557.22;5013389;28;20033;-71
2022/07/26 03:38:16;;;;;;;10.90;8.38;;;;;;;20.09;73.39;99567.28;5014405;28;20076;-71
2022/07/26 03:40:42;;;;;;;11.32;8.43;;;;;;;20.08;73.69;99566.50;5014739;28;20037;-71
2022/07/26 03:43:08;;;;;;;12.00;8.70;;;;;;;20.07;74.15;99576.56;5013167;28;20065;-71
2022/07/26 03:45:36;;;;;;;10.30;8.52;;;;;;;20.10;75.09;99577.53;5014516;28;20410;-71
2022/07/26 03:48:01;;;;;;;11.15;8.90;;;;;;;20.13;75.34;99587.97;5013087;28;20041;-71
2022/07/26 03:50:28;;;;;;;11.95;9.43;;;;;;;20.20;75.95;99590.13;5014162;28;20160;-70
2022/07/26 03:52:53;;;;;;;12.05;9.05;;;;;;;20.20;76.46;99601.72;5014122;28;20037;-71
2022/07/26 03:58:03;;;;;;;10.30;8.75;;;;;;;20.25;76.88;99598.63;5014360;28;20045;-72
2022/07/26 04:00:29;;;;;;;13.00;9.93;;;;;;;20.27;77.04;99595.94;5013948;28;20395;-72
2022/07/26 04:02:54;;;;;;;13.30;8.80;;;;;;;20.32;77.40;99602.91;5014194;28;20026;-71
2022/07/26 04:05:19;;;;;;;13.00;9.50;;;;;;;20.39;77.52;99607.94;5013862;28;20148;-71
2022/07/26 04:07:46;;;;;;;14.80;9.70;;;;;;;20.42;77.16;99603.88;5012952;28;20022;-71
2022/07/26 04:10:17;;;;;;;18.70;9.70;;;;;;;20.53;77.90;99612.22;5012686;28;20034;-71
2022/07/26 04:12:43;;;;;;;10.73;8.82;;;;;;;20.14;78.69;99613.53;4996602;28;20034;-71
2022/07/26 04:15:09;;;;;;;11.23;8.52;;;;;;;20.82;77.80;99630.25;5014243;28;20087;-71
2022/07/26 04:17:43;;;;;;;12.70;9.18;;;;;;;20.81;77.03;99625.78;5012386;28;20132;-72
2022/07/26 04:20:11;;;;;;;13.52;10.43;;;;;;;21.00;76.12;99640.66;5012922;28;20033;-72
2022/07/26 04:22:38;;;;;;;12.15;9.77;;;;;;;20.97;76.64;99638.16;5012945;28;20026;-72
2022/07/26 04:25:08;;;;;;;12.13;9.15;;;;;;;21.20;75.30;99648.41;5013788;28;20032;-72
2022/07/26 04:27:35;;;;;;;12.70;10.10;;;;;;;21.28;74.84;99653.44;5012642;28;20034;-72
2022/07/26 04:30:02;;;;;;;11.25;9.18;;;;;;;21.37;74.44;99656.50;4995865;28;20061;-72
2022/07/26 04:32:28;;;;;;;12.27;9.10;;;;;;;21.45;73.62;99668.13;5012319;28;20089;-71
2022/07/26 04:34:56;;;;;;;11.00;8.85;;;;;;;21.43;73.97;99665.81;5012044;28;20364;-70
2022/07/26 04:37:21;;;;;;;11.15;8.85;;;;;;;21.45;73.62;99671.81;5013843;28;20025;-72
2022/07/26 04:39:48;;;;;;;12.40;8.68;;;;;;;21.47;73.60;99671.25;5013692;28;20109;-73
2022/07/26 04:42:14;;;;;;;9.57;7.82;;;;;;;21.48;73.48;99678.63;5013550;28;20101;-72
2022/07/26 04:44:39;;;;;;;9.45;8.00;;;;;;;21.53;72.96;99687.09;5013502;28;20030;-72
2022/07/26 04:47:06;;;;;;;8.43;7.13;;;;;;;21.57;72.58;99687.50;5012264;28;20030;-72
2022/07/26 04:49:31;;;;;;;10.48;7.80;;;;;;;21.64;72.44;99692.50;5013315;28;20160;-71
2022/07/26 04:51:58;;;;;;;11.65;7.38;;;;;;;21.66;72.26;99695.63;5013483;28;20375;-71
2022/07/26 04:54:23;;;;;;;10.73;7.93;;;;;;;21.69;71.73;99699.47;5013505;28;20018;-71
2022/07/26 04:56:49;;;;;;;9.77;7.70;;;;;;;21.70;71.96;99712.66;5012117;28;20554;-72
2022/07/26 04:59:16;;;;;;;12.18;8.23;;;;;;;21.74;71.76;99710.13;5013339;28;20109;-71
2022/07/26 05:01:42;;;;;;;8.43;7.53;;;;;;;21.84;71.63;99707.38;5012267;28;20046;-73
2022/07/26 05:04:08;;;;;;;10.35;7.30;;;;;;;21.97;71.16;99713.75;5012664;28;20041;-71
2022/07/26 05:06:33;;;;;;;7.60;6.18;;;;;;;22.12;69.87;99724.56;5012345;28;20033;-72
2022/07/26 05:09:00;;;;;;;8.35;7.13;;;;;;;22.26;68.76;99731.69;5012128;28;20110;-72
2022/07/26 05:11:25;;;;;;;8.48;5.85;;;;;;;22.42;67.86;99750.63;5013342;28;20349;-72
2022/07/26 05:13:51;;;;;;;8.43;5.53;;;;;;;22.63;66.14;99746.63;5013190;28;20058;-72
2022/07/26 05:16:16;;;;;;;5.65;5.15;;;;;;;22.70;65.09;99748.75;5013467;28;20025;-72
2022/07/26 05:18:43;;;;;;;6.70;4.60;;;;;;;22.88;63.90;99756.22;5013090;28;20491;-74
2022/07/26 05:21:09;;;;;;;35.92;7.53;;;;;;;23.12;63.02;99751.75;5012190;28;20030;-72
2022/07/26 05:23:35;;;;;;;12.68;5.97;;;;;;;23.30;62.24;99756.28;5013166;28;20089;-72
2022/07/26 05:26:02;;;;;;;14.65;4.88;;;;;;;23.47;60.79;99758.47;5011839;28;20430;-71
2022/07/26 05:28:28;;;;;;;10.38;4.32;;;;;;;23.65;60.33;99766.69;5011443;28;20117;-71
2022/07/26 05:30:55;;;;;;;5.35;4.57;;;;;;;23.73;59.36;99760.78;5013304;28;20022;-72
2022/07/26 05:33:20;;;;;;;5.95;4.32;;;;;;;23.75;59.57;99772.63;5013386;28;20068;-72
2022/07/26 05:35:46;;;;;;;6.82;4.45;;;;;;;23.80;59.27;99777.44;5012148;28;20034;-73
2022/07/26 05:38:12;;;;;;;12.23;5.05;;;;;;;23.82;59.20;99779.75;5011800;28;20088;-74
2022/07/26 05:40:40;;;;;;;6.93;4.72;;;;;;;23.77;59.16;99779.41;5012750;28;20030;-75
2022/07/26 05:43:05;;;;;;;6.57;4.55;;;;;;;23.66;59.22;99779.91;5010548;28;20037;-74
2022/07/26 05:45:31;;;;;;;6.10;4.50;;;;;;;23.46;59.51;99775.19;4995222;28;20034;-73
2022/07/26 05:47:58;;;;;;;8.68;5.00;;;;;;;23.27;60.08;99790.31;4993690;28;20391;-70
2022/07/26 05:50:23;;;;;;;5.25;4.57;;;;;;;23.10;60.37;99795.31;4996419;28;20463;-72
2022/07/26 05:52:49;;;;;;;10.00;5.65;;;;;;;23.04;60.58;99800.59;4978768;28;20030;-70
2022/07/26 05:55:15;;;;;;;6.60;4.18;;;;;;;22.83;60.72;99795.84;4996345;28;20026;-70
2022/07/26 05:57:46;;;;;;;5.53;4.57;;;;;;;22.82;60.77;99813.91;4994767;28;20022;-70
2022/07/26 06:00:12;;;;;;;16.63;15.07;;;;;;;22.78;60.98;99822.28;4994899;28;20030;-70
2022/07/26 06:02:38;;;;;;;8.88;5.00;;;;;;;22.66;61.42;99824.91;4994679;28;20018;-70
2022/07/26 06:05:05;;;;;;;5.00;4.13;;;;;;;22.58;62.05;99835.78;4995055;28;20038;-69
2022/07/26 06:07:30;;;;;;;7.80;5.03;;;;;;;22.54;62.16;99838.34;4994681;28;20117;-70
2022/07/26 06:09:56;;;;;;;7.40;5.07;;;;;;;22.53;62.38;99836.78;4998657;28;20101;-70
2022/07/26 06:12:21;;;;;;;6.45;4.78;;;;;;;22.47;62.82;99831.19;4978047;28;20030;-70
2022/07/26 06:14:47;;;;;;;9.15;4.88;;;;;;;22.44;63.46;99832.38;4996293;28;20491;-68
2022/07/26 06:17:14;;;;;;;6.07;4.53;;;;;;;22.40;63.70;99848.69;4996104;28;20030;-68
2022/07/26 06:19:41;;;;;;;5.80;4.47;;;;;;;22.41;63.26;99856.84;4994618;28;20440;-70
2022/07/26 06:22:08;;;;;;;8.30;4.85;;;;;;;22.40;63.33;99851.59;4994385;28;20497;-69
2022/07/26 06:24:34;;;;;;;7.55;5.18;;;;;;;22.40;63.30;99857.41;4995877;28;20030;-69
2022/07/26 06:26:59;;;;;;;4.82;4.22;;;;;;;22.36;63.56;99863.66;4996080;28;20092;-69
2022/07/26 06:29:25;;;;;;;6.13;4.20;;;;;;;22.30;62.69;99860.16;4995892;28;20423;-69
2022/07/26 06:31:50;;;;;;;6.25;4.47;;;;;;;22.25;62.69;99863.28;4995651;28;20468;-72
2022/07/26 06:34:16;;;;;;;11.77;4.65;;;;;;;22.22;63.03;99853.59;4994788;28;20046;-73
2022/07/26 06:36:42;;;;;;;8.60;5.07;;;;;;;22.19;63.38;99862.72;4994932;28;20034;-71
2022/07/26 06:39:08;;;;;;;5.97;4.30;;;;;;;22.16;63.23;99869.69;4978166;28;20180;-69
2022/07/26 06:41:34;;;;;;;5.15;4.10;;;;;;;22.13;63.19;99868.72;4994666;28;20103;-70
2022/07/26 06:44:00;;;;;;;6.78;4.38;;;;;;;22.09;63.72;99877.84;4994911;28;20037;-69
2022/07/26 06:46:26;;;;;;;6.55;4.00;;;;;;;22.06;63.11;99884.84;4994649;28;20416;-70
2022/07/26 06:48:52;;;;;;;7.05;3.75;;;;;;;22.05;62.91;99882.50;4995641;28;20117;-71
2022/07/26 06:51:19;;;;;;;9.80;4.68;;;;;;;22.11;62.86;99883.09;4996199;28;20479;-71
2022/07/26 06:53:46;;;;;;;4.63;3.50;;;;;;;22.20;61.55;99893.38;4993748;28;20026;-72
2022/07/26 06:56:14;;;;;;;4.88;3.58;;;;;;;22.32;61.32;99888.72;4995816;28;20033;-70
2022/07/26 06:58:41;;;;;;;12.05;3.30;;;;;;;22.50;60.66;99890.41;4995395;28;20027;-69
2022/07/26 07:01:07;;;;;;;6.30;3.10;;;;;;;22.82;59.81;99913.75;4994207;28;20030;-69
2022/07/26 07:03:33;;;;;;;9.95;3.67;;;;;;;23.14;57.99;99904.31;4994219;28;20386;-71
2022/07/26 07:05:58;;;;;;;4.95;3.38;;;;;;;23.43;56.60;99921.44;4994264;28;20022;-71
2022/07/26 07:08:24;;;;;;;7.03;3.67;;;;;;;23.49;56.18;99916.94;4995027;28;20081;-70
2022/07/26 07:10:51;;;;;;;7.18;3.35;;;;;;;23.53;55.90;99928.97;4994195;28;20028;-70
2022/07/26 07:13:19;;;;;;;7.13;3.78;;;;;;;23.54;55.47;99921.78;4995443;28;20030;-71
2022/07/26 07:15:44;;;;;;;7.72;3.28;;;;;;;23.53;55.09;99931.88;4994987;28;20097;-69
2022/07/26 07:18:09;;;;;;;8.95;4.70;;;;;;;23.54;55.20;99935.59;4995006;28;20138;-72
2022/07/26 07:20:36;;;;;;;6.82;3.78;;;;;;;23.56;55.12;99941.59;4961366;28;20038;-72
2022/07/26 07:23:03;;;;;;;4.43;2.92;;;;;;;23.65;55.69;99947.59;4978041;28;20041;-73
2022/07/26 07:25:29;;;;;;;6.60;3.10;;;;;;;23.76;54.69;99949.25;4994924;28;20068;-72
2022/07/26 07:27:54;;;;;;;298.45;51.47;;;;;;;23.97;54.03;99949.69;4993880;28;20057;-72
2022/07/26 07:30:19;;;;;;;5.47;2.92;;;;;;;24.39;53.42;99957.72;4994830;28;20026;-72
2022/07/26 07:32:45;;;;;;;9.32;3.40;;;;;;;24.83;52.54;99957.81;4994727;28;20137;-72
2022/07/26 07:35:14;;;;;;;10.13;2.85;;;;;;;25.49;51.07;99966.34;4992796;28;20125;-74
2022/07/26 07:37:40;;;;;;;11.98;2.70;;;;;;;26.07;48.55;99963.72;4994775;28;20121;-73
2022/07/26 07:40:09;;;;;;;6.30;2.55;;;;;;;26.38;47.51;99963.19;4995047;28;20022;-72
2022/07/26 07:42:35;;;;;;;15.07;3.90;;;;;;;26.52;46.30;99964.31;4994918;28;20097;-72
2022/07/26 07:45:01;;;;;;;7.35;4.55;;;;;;;26.52;46.12;99946.72;4994677;28;20026;-73
2022/07/26 07:47:27;;;;;;;3.95;2.70;;;;;;;26.74;45.89;99966.06;4993593;28;20033;-73
2022/07/26 07:49:53;;;;;;;3.88;3.00;;;;;;;26.88;45.21;99963.44;4994872;28;20022;-73
2022/07/26 07:52:18;;;;;;;10.43;2.63;;;;;;;27.11;44.27;99970.38;4994660;28;20105;-74
2022/07/26 07:54:45;;;;;;;3.45;2.17;;;;;;;27.27;43.19;99961.25;4994594;28;20142;-72
2022/07/26 07:57:10;;;;;;;5.45;2.55;;;;;;;27.32;43.79;99958.03;4993186;28;20165;-72
2022/07/26 07:59:37;;;;;;;3.70;2.00;;;;;;;27.42;43.58;99955.09;4994713;28;20503;-72
2022/07/26 08:02:02;;;;;;;6.00;2.30;;;;;;;27.67;43.33;99964.28;4993119;28;20030;-72
2022/07/26 08:04:27;;;;;;;3.72;2.25;;;;;;;27.70;41.55;99968.16;4994488;28;20033;-72
2022/07/26 08:06:54;;;;;;;4.70;2.40;;;;;;;27.72;42.53;99957.31;4994481;28;20030;-72
2022/07/26 08:09:21;;;;;;;2.40;2.00;;;;;;;27.79;41.65;99953.44;4993550;28;20057;-72
2022/07/26 08:11:47;;;;;;;4.88;2.17;;;;;;;27.88;41.16;99955.56;4994307;28;20026;-73
2022/07/26 08:14:13;;;;;;;2.42;2.15;;;;;;;27.88;41.31;99957.75;4994208;28;20022;-72
2022/07/26 08:16:38;;;;;;;5.20;2.45;;;;;;;27.98;41.18;99962.22;4993109;28;20019;-71
2022/07/26 08:19:03;;;;;;;5.05;1.80;;;;;;;28.05;41.51;99965.59;4993949;28;20046;-70
2022/07/26 08:21:30;;;;;;;6.68;2.47;;;;;;;28.12;40.74;99965.38;4994057;28;20501;-71
2022/07/26 08:23:56;;;;;;;3.42;2.38;;;;;;;28.05;40.96;99966.34;4994011;28;20030;-72
2022/07/26 08:26:22;;;;;;;2.53;2.20;;;;;;;27.90;41.11;99976.28;4976575;28;20024;-72
2022/07/26 08:28:53;;;;;;;2.72;1.92;;;;;;;27.76;41.32;99974.47;4992909;28;20033;-74
2022/07/26 08:31:20;;;;;;;2.67;1.98;;;;;;;27.75;40.98;99970.75;4994139;28;20027;-73
2022/07/26 08:33:47;;;;;;;5.07;2.05;;;;;;;27.77;40.99;99978.94;4992821;28;20376;-75
2022/07/26 08:36:14;;;;;;;5.43;2.35;;;;;;;27.80;40.86;99969.66;4960237;28;20442;-73
2022/07/26 08:38:42;;;;;;;6.70;2.30;;;;;;;28.06;40.84;99978.88;4992639;28;20110;-72
2022/07/26 08:41:08;;;;;;;6.50;2.15;;;;;;;28.20;39.69;99979.88;4993621;28;20482;-74
2022/07/26 08:43:33;;;;;;;9.75;2.78;;;;;;;28.29;40.08;99976.88;4975601;28;20122;-73
2022/07/26 08:46:00;;;;;;;5.53;1.88;;;;;;;28.46;40.21;99975.91;4992387;28;20395;-74
2022/07/26 08:48:25;;;;;;;8.52;2.08;;;;;;;28.50;38.65;99982.06;4991847;28;20476;-74
2022/07/26 08:50:54;;;;;;;15.07;3.95;;;;;;;28.51;38.92;99982.84;4992544;28;20031;-73
2022/07/26 08:53:20;;;;;;;5.00;2.30;;;;;;;28.57;38.79;99986.97;4992593;28;20039;-72
2022/07/26 08:55:45;;;;;;;4.95;1.98;;;;;;;28.68;38.35;99995.13;4992569;28;20027;-72
2022/07/26 08:58:12;;;;;;;3.35;1.90;;;;;;;28.67;38.56;99992.81;4992242;28;20037;-74
2022/07/26 09:00:37;;;;;;;5.93;1.98;;;;;;;28.69;38.47;99987.03;4993007;28;20030;-73
2022/07/26 09:03:03;;;;;;;7.38;2.40;;;;;;;28.66;38.14;99991.25;4992317;28;20043;-73
2022/07/26 09:05:34;;;;;;;5.90;2.60;;;;;;;28.71;38.05;99987.97;4993799;28;20026;-73
2022/07/26 09:08:25;;;;;;;2.83;2.50;;;;;;;28.80;38.77;99990.06;4992447;28;20030;-72
2022/07/26 09:10:52;;;;;;;4.45;1.80;;;;;;;28.88;38.07;99989.88;4993842;28;20037;-72
2022/07/26 09:13:19;;;;;;;11.02;7.47;;;;;;;28.79;37.62;99988.50;4993616;28;20030;-73
2022/07/26 09:15:48;;;;;;;7.65;2.13;;;;;;;28.79;37.65;100003.22;4993873;28;20440;-73
2022/07/26 09:18:28;;;;;;;3.60;2.10;;;;;;;28.79;37.58;99993.63;4993563;28;20051;-72
2022/07/26 09:20:56;;;;;;;5.10;2.38;;;;;;;28.80;37.95;99993.00;4994056;28;20057;-73
2022/07/26 09:23:22;;;;;;;3.60;1.88;;;;;;;29.00;37.55;99995.78;4996247;28;20031;-72
2022/07/26 09:25:48;;;;;;;6.97;2.03;;;;;;;29.02;36.98;99998.91;4995811;28;20034;-73
2022/07/26 09:28:30;;;;;;;12.63;3.67;;;;;;;28.92;37.96;100004.84;4979447;28;20038;-73
2022/07/26 09:31:04;;;;;;;8.65;2.90;;;;;;;28.92;36.93;100004.06;4995810;28;20034;-73
2022/07/26 09:33:49;;;;;;;20.02;3.10;;;;;;;29.06;36.91;99997.03;4997273;28;20034;-73
2022/07/26 09:36:16;;;;;;;7.45;2.40;;;;;;;29.21;37.04;99992.88;4979558;28;20117;-73
2022/07/26 09:38:57;;;;;;;6.07;1.88;;;;;;;29.33;36.22;100001.75;4995822;28;20034;-73
2022/07/26 09:41:36;;;;;;;9.43;2.50;;;;;;;29.24;35.21;99998.25;4997092;28;20430;-73
2022/07/26 09:44:05;;;;;;;7.75;2.30;;;;;;;29.15;36.17;100001.28;4997044;28;20030;-73
2022/07/26 09:46:52;;;;;;;4.65;1.92;;;;;;;29.12;35.54;100008.44;4995171;28;20053;-73
2022/07/26 09:49:19;;;;;;;161.30;17.38;;;;;;;29.05;35.36;100010.19;4996297;28;20081;-73
2022/07/26 09:52:00;;;;;;;5.30;2.03;;;;;;;29.06;35.48;100020.56;4995520;28;20057;-73
2022/07/26 09:54:32;;;;;;;12.57;3.08;;;;;;;29.15;35.23;100018.94;4996389;28;20038;-73
2022/07/26 09:56:59;;;;;;;7.25;2.70;;;;;;;29.21;35.40;100028.97;4995373;28;20113;-74
2022/07/26 09:59:29;;;;;;;3.80;1.58;;;;;;;29.25;34.50;100022.56;4995717;28;20033;-72
2022/07/26 10:01:56;;;;;;;7.85;2.28;;;;;;;29.28;35.59;100027.97;4995167;28;20468;-73
2022/07/26 10:04:23;;;;;;;6.55;2.45;;;;;;;29.37;34.79;100029.28;4995244;28;20483;-73
2022/07/26 10:06:50;;;;;;;4.50;1.83;;;;;;;29.44;34.81;100028.28;4996397;28;20117;-73
2022/07/26 10:09:17;;;;;;;2.30;1.60;;;;;;;29.45;34.00;100032.78;4994960;28;20022;-72
2022/07/26 10:11:52;;;;;;;10.20;3.55;;;;;;;29.28;34.30;100033.84;4994734;28;20030;-73
2022/07/26 10:14:32;;;;;;;7.97;1.70;;;;;;;29.28;34.15;100042.69;4996273;28;20109;-73
2022/07/26 10:17:40;;;;;;;4.95;2.15;;;;;;;29.30;33.07;100033.22;4996302;28;20058;-73
2022/07/26 10:20:33;;;;;;;2.83;1.60;;;;;;;29.40;33.17;100042.75;4995941;28;20042;-73
2022/07/26 10:23:00;;;;;;;6.07;2.20;;;;;;;29.51;32.83;100035.34;4995961;28;20141;-73
2022/07/26 10:25:45;;;;;;;6.03;1.67;;;;;;;29.56;32.54;100043.06;4994487;28;20034;-73
2022/07/26 10:28:25;;;;;;;5.20;2.67;;;;;;;29.64;32.36;100046.56;4995793;28;20030;-73
2022/07/26 10:31:11;;;;;;;6.47;3.23;;;;;;;29.80;32.61;100040.97;4995918;28;20029;-73
2022/07/26 10:33:56;;;;;;;3.92;1.58;;;;;;;29.93;32.38;100034.47;4994174;28;20113;-73
2022/07/26 10:36:27;;;;;;;7.82;1.70;;;;;;;30.03;32.28;100038.09;4994605;28;20030;-72
2022/07/26 10:39:10;;;;;;;8.85;1.65;;;;;;;30.22;32.40;100029.03;4977876;28;20022;-74
2022/07/26 10:41:36;;;;;;;6.28;2.03;;;;;;;30.45;32.09;100029.06;4994689;28;20026;-73
2022/07/26 10:44:18;;;;;;;1.98;1.30;;;;;;;30.64;31.56;100036.13;4995185;28;20042;-73
2022/07/26 10:47:17;;;;;;;5.63;1.42;;;;;;;30.65;31.29;100029.59;4994502;28;20487;-73
2022/07/26 10:49:54;;;;;;;2.38;1.35;;;;;;;30.58;31.09;100031.34;4995803;28;20050;-73
2022/07/26 10:52:31;;;;;;;3.33;1.38;;;;;;;30.46;30.96;100023.94;4995867;28;20027;-72
2022/07/26 10:54:59;;;;;;;32.88;6.97;;;;;;;30.39;30.69;100028.66;4978217;28;20030;-73
2022/07/26 10:57:33;;;;;;;10.68;3.33;;;;;;;30.42;31.26;100017.75;4994253;28;20022;-73
2022/07/26 11:00:00;;;;;;;9.70;2.47;;;;;;;30.40;30.65;100027.25;4995729;28;20125;-73
2022/07/26 11:02:32;;;;;;;12.27;2.55;;;;;;;30.29;30.76;100016.22;4995012;28;20479;-73
2022/07/26 11:05:00;;;;;;;11.40;2.35;;;;;;;30.34;31.12;100020.97;4978222;28;20117;-74
2022/07/26 11:07:27;;;;;;;2.03;1.45;;;;;;;30.39;30.55;100022.00;4994585;28;20049;-72
2022/07/26 11:09:58;;;;;;;6.15;1.73;;;;;;;30.41;30.80;100028.81;4977942;28;20109;-73
2022/07/26 11:12:23;;;;;;;4.43;1.75;;;;;;;30.48;30.91;100024.03;4977976;28;20034;-73
2022/07/26 11:14:52;;;;;;;2.72;1.35;;;;;;;30.41;30.56;100019.19;4995097;28;20022;-72
2022/07/26 11:17:28;;;;;;;10.02;2.95;;;;;;;30.29;30.86;100024.28;4977899;28;20050;-74
2022/07/26 11:19:55;;;;;;;3.03;1.33;;;;;;;30.17;30.92;100032.38;4993982;28;20113;-73
2022/07/26 11:22:42;;;;;;;3.22;1.27;;;;;;;30.00;31.15;100030.53;4995287;28;20058;-73
2022/07/26 11:25:07;;;;;;;5.60;1.33;;;;;;;29.78;31.38;100037.91;4994703;28;20105;-74
2022/07/26 11:27:33;;;;;;;6.10;1.63;;;;;;;29.57;31.88;100036.56;4994730;28;20487;-73
2022/07/26 11:30:04;;;;;;;3.58;1.60;;;;;;;29.51;32.26;100039.09;4994654;28;20077;-73
2022/07/26 11:32:31;;;;;;;7.72;1.70;;;;;;;29.51;32.12;100038.31;4994942;28;20077;-72
2022/07/26 11:35:01;;;;;;;8.05;1.88;;;;;;;29.46;32.44;100030.59;4993563;28;20018;-73
2022/07/26 11:37:27;;;;;;;8.38;3.20;;;;;;;29.53;32.74;100032.53;4977469;28;20042;-73
2022/07/26 11:40:01;;;;;;;3.85;2.40;;;;;;;29.61;32.52;100041.97;4995073;28;20022;-72